Time;durP1;ratioP1;P1;durP2;ratioP2;P2;SDS_P1;SDS_P2;PMS_P1;PMS_P2;Temp;Humidity;BMP_temperature;BMP_pressure;BME280_temperature;BME280_humidity;BME280_pressure;Samples;Min_cycle;Max_cycle;Signal;HPM_P1;HPM_P2
2021/07/07 00:00:35;;;;;;;15.20;11.70;;;20.90;99.90;;;;;;5089243;28;20431;-55
2021/07/07 00:03:01;;;;;;;15.98;11.20;;;20.90;99.90;;;;;;5082666;28;20056;-56
2021/07/07 00:05:26;;;;;;;12.05;10.57;;;20.80;99.90;;;;;;5082532;28;20099;-55
2021/07/07 00:07:52;;;;;;;12.00;10.52;;;20.80;99.90;;;;;;5012802;28;20040;-55
2021/07/07 00:10:19;;;;;;;15.80;11.63;;;20.70;99.90;;;;;;5085897;28;20023;-55
2021/07/07 00:12:47;;;;;;;14.25;10.50;;;20.80;99.90;;;;;;5065981;28;20036;-55
2021/07/07 00:15:25;;;;;;;12.38;10.40;;;20.80;99.90;;;;;;5082712;28;20032;-55
2021/07/07 00:17:50;;;;;;;12.02;10.48;;;20.90;99.90;;;;;;5081656;28;20043;-55
2021/07/07 00:20:19;;;;;;;13.45;10.95;;;20.90;99.90;;;;;;5074818;28;20040;-55
2021/07/07 00:22:45;;;;;;;14.23;10.38;;;21.00;99.90;;;;;;5083357;28;20043;-55
2021/07/07 00:25:12;;;;;;;13.15;10.82;;;21.00;99.90;;;;;;5078368;28;20099;-55
2021/07/07 00:27:38;;;;;;;12.50;10.07;;;;;;;;;;5081768;28;20360;-55
2021/07/07 00:30:06;;;;;;;13.70;11.27;;;20.90;99.90;;;;;;5024717;28;20045;-55
2021/07/07 00:32:32;;;;;;;13.18;10.40;;;20.90;99.90;;;;;;5075071;28;20025;-54
2021/07/07 00:34:57;;;;;;;12.50;11.00;;;20.90;99.90;;;;;;5077547;28;20373;-54
2021/07/07 00:37:23;;;;;;;16.02;11.85;;;20.90;99.90;;;;;;5083174;28;20047;-55
2021/07/07 00:39:49;;;;;;;14.98;11.55;;;20.80;99.90;;;;;;5085187;28;20055;-54
2021/07/07 00:42:15;;;;;;;15.13;11.38;;;20.80;99.90;;;;;;5076918;28;20471;-55
2021/07/07 00:44:40;;;;;;;13.23;11.85;;;20.80;99.90;;;;;;5059254;28;20517;-55
2021/07/07 00:47:06;;;;;;;13.40;11.45;;;20.80;99.90;;;;;;5081941;28;20118;-55
2021/07/07 00:49:34;;;;;;;13.80;11.50;;;20.80;99.90;;;;;;5077131;28;20091;-55
2021/07/07 00:52:03;;;;;;;11.85;10.65;;;20.70;99.90;;;;;;5059738;28;20361;-55
2021/07/07 00:54:31;;;;;;;12.48;10.30;;;20.70;99.90;;;;;;5079816;28;20589;-55
2021/07/07 00:57:00;;;;;;;15.93;11.43;;;20.70;99.90;;;;;;5076719;28;20162;-54
2021/07/07 00:59:27;;;;;;;12.65;11.35;;;20.70;99.90;;;;;;5081353;28;20054;-55
2021/07/07 01:01:55;;;;;;;15.20;11.90;;;20.60;99.90;;;;;;5080557;28;20074;-55
2021/07/07 01:04:20;;;;;;;13.18;11.48;;;20.60;99.90;;;;;;5075665;28;20036;-54
2021/07/07 01:06:47;;;;;;;13.63;11.77;;;20.30;99.90;;;;;;5089998;28;20028;-55
2021/07/07 01:09:12;;;;;;;13.55;12.10;;;20.20;99.90;;;;;;5083929;28;20456;-54
2021/07/07 01:11:38;;;;;;;13.30;11.70;;;20.00;99.90;;;;;;5076631;28;20093;-54
2021/07/07 01:14:06;;;;;;;13.90;11.10;;;20.00;99.90;;;;;;5080244;28;20098;-55
2021/07/07 01:16:32;;;;;;;14.40;11.65;;;20.00;99.90;;;;;;5058580;28;20044;-54
2021/07/07 01:18:58;;;;;;;12.00;10.30;;;20.00;99.90;;;;;;5084017;28;20032;-55
2021/07/07 01:21:24;;;;;;;12.40;11.15;;;20.10;99.90;;;;;;5075679;28;20391;-55
2021/07/07 01:23:53;;;;;;;12.82;10.63;;;20.20;99.90;;;;;;5084991;28;20562;-55
2021/07/07 01:26:19;;;;;;;17.35;11.20;;;20.20;99.90;;;;;;5081031;28;20189;-55
2021/07/07 01:28:46;;;;;;;14.30;11.90;;;20.10;99.90;;;;;;5071794;28;20064;-55
2021/07/07 01:31:12;;;;;;;16.13;11.95;;;20.00;99.90;;;;;;5080680;28;20040;-55
2021/07/07 01:33:38;;;;;;;14.35;10.80;;;19.80;99.90;;;;;;5081870;28;20097;-55
2021/07/07 01:36:04;;;;;;;14.95;11.50;;;19.90;99.90;;;;;;5079449;28;20060;-55
2021/07/07 01:38:30;;;;;;;12.90;11.13;;;19.90;99.90;;;;;;5059957;28;20041;-55
2021/07/07 01:40:59;;;;;;;12.02;10.82;;;19.90;99.90;;;;;;5059931;28;20028;-56
2021/07/07 01:43:25;;;;;;;13.23;11.82;;;19.90;99.90;;;;;;5083504;28;20475;-55
2021/07/07 01:45:51;;;;;;;16.95;11.23;;;19.80;99.90;;;;;;5078234;28;20074;-55
2021/07/07 01:48:17;;;;;;;12.27;11.00;;;19.80;99.90;;;;;;5088732;28;20024;-56
2021/07/07 01:50:43;;;;;;;12.23;10.95;;;19.80;99.90;;;;;;5063097;28;20048;-56
2021/07/07 01:53:10;;;;;;;16.33;12.13;;;19.80;99.90;;;;;;5031614;28;20049;-54
2021/07/07 01:55:36;;;;;;;16.20;14.45;;;19.80;99.90;;;;;;5085625;28;20056;-56
2021/07/07 01:58:03;;;;;;;13.73;11.27;;;19.90;99.90;;;;;;5056571;28;20162;-55
2021/07/07 02:00:32;;;;;;;11.75;10.55;;;19.90;99.90;;;;;;5006859;28;20570;-55
2021/07/07 02:02:59;;;;;;;14.35;11.52;;;19.90;99.90;;;;;;5055598;28;20036;-55
2021/07/07 02:05:29;;;;;;;12.93;11.38;;;19.80;99.90;;;;;;5072968;28;20052;-56
2021/07/07 02:07:56;;;;;;;14.63;12.35;;;19.70;99.90;;;;;;5085543;28;20032;-57
2021/07/07 02:10:22;;;;;;;13.40;12.02;;;19.50;99.90;;;;;;5071783;28;20028;-57
2021/07/07 02:12:50;;;;;;;13.98;12.43;;;19.30;99.90;;;;;;5080191;28;20060;-59
2021/07/07 02:15:22;;;;;;;16.10;12.48;;;19.30;99.90;;;;;;5078432;28;20024;-57
2021/07/07 02:17:50;;;;;;;23.35;15.93;;;19.30;99.90;;;;;;5070633;28;20443;-56
2021/07/07 02:20:16;;;;;;;14.38;11.75;;;19.20;99.90;;;;;;5059607;28;20365;-57
2021/07/07 02:22:43;;;;;;;19.17;11.82;;;19.20;99.90;;;;;;5081696;28;20028;-57
2021/07/07 02:25:18;;;;;;;12.30;10.82;;;19.10;99.90;;;;;;5059877;28;20040;-57
2021/07/07 02:27:44;;;;;;;13.52;12.13;;;19.10;99.90;;;;;;5067263;28;20031;-57
2021/07/07 02:30:13;;;;;;;16.73;13.10;;;19.10;99.90;;;;;;5074725;28;20031;-57
2021/07/07 02:32:39;;;;;;;13.70;12.20;;;19.00;99.90;;;;;;5018312;28;20485;-56
2021/07/07 02:35:08;;;;;;;17.75;12.27;;;19.00;99.90;;;;;;5054185;28;20136;-57
2021/07/07 02:37:34;;;;;;;17.73;12.50;;;19.00;99.90;;;;;;5050723;28;20507;-56
2021/07/07 02:40:01;;;;;;;12.90;11.60;;;19.10;99.90;;;;;;5076270;28;20070;-56
2021/07/07 02:42:27;;;;;;;14.65;12.48;;;19.10;99.90;;;;;;5054132;28;20127;-56
2021/07/07 02:44:52;;;;;;;17.20;12.60;;;19.00;99.90;;;;;;5081403;28;20436;-56
2021/07/07 02:47:18;;;;;;;15.50;13.05;;;19.00;99.90;;;;;;5059587;28;20048;-57
2021/07/07 02:49:44;;;;;;;14.70;12.98;;;18.90;99.90;;;;;;5084937;28;20067;-56
2021/07/07 02:52:10;;;;;;;15.32;12.02;;;18.90;99.90;;;;;;5079880;28;20036;-58
2021/07/07 02:54:35;;;;;;;17.60;12.68;;;18.90;99.90;;;;;;5047780;28;20051;-57
2021/07/07 02:57:01;;;;;;;14.73;12.88;;;18.90;99.90;;;;;;5073309;28;20025;-57
2021/07/07 02:59:27;;;;;;;17.42;12.52;;;18.90;99.90;;;;;;5074277;28;20498;-57
2021/07/07 03:01:53;;;;;;;17.52;13.20;;;18.90;99.90;;;;;;5062522;28;20040;-56
2021/07/07 03:04:19;;;;;;;16.60;12.55;;;18.90;99.90;;;;;;5063679;28;20040;-57
2021/07/07 03:06:45;;;;;;;14.25;12.15;;;18.90;99.90;;;;;;5076499;28;20035;-56
2021/07/07 03:09:10;;;;;;;14.45;12.40;;;19.00;99.90;;;;;;5063916;28;20037;-57
2021/07/07 03:11:38;;;;;;;14.93;13.07;;;19.00;99.90;;;;;;5081063;28;20081;-57
2021/07/07 03:14:04;;;;;;;14.77;12.73;;;19.00;99.90;;;;;;5073451;28;20037;-57
2021/07/07 03:16:30;;;;;;;14.90;12.65;;;19.00;99.90;;;;;;5079624;28;20028;-56
2021/07/07 03:18:56;;;;;;;14.38;12.95;;;19.00;99.90;;;;;;5067919;28;20040;-57
2021/07/07 03:21:22;;;;;;;14.57;13.00;;;19.00;99.90;;;;;;5083103;28;20067;-57
2021/07/07 03:23:48;;;;;;;15.18;12.75;;;19.00;99.90;;;;;;5052607;28;20100;-57
2021/07/07 03:26:14;;;;;;;16.80;14.07;;;19.00;99.90;;;;;;5082208;28;20028;-57
2021/07/07 03:28:40;;;;;;;15.27;12.77;;;19.00;99.90;;;;;;5072316;28;20067;-57
2021/07/07 03:31:06;;;;;;;14.68;12.15;;;19.10;99.90;;;;;;5086203;28;20035;-56
2021/07/07 03:33:32;;;;;;;14.98;13.35;;;19.10;99.90;;;;;;5080567;28;20057;-57
2021/07/07 03:35:59;;;;;;;13.85;12.23;;;19.10;99.90;;;;;;5060552;28;20044;-57
2021/07/07 03:38:26;;;;;;;14.80;13.07;;;19.10;99.90;;;;;;5082681;28;20060;-56
2021/07/07 03:40:52;;;;;;;13.65;12.30;;;19.20;99.90;;;;;;5077080;28;20075;-57
2021/07/07 03:43:18;;;;;;;12.40;10.38;;;19.20;99.90;;;;;;5078650;28;20044;-57
2021/07/07 03:45:44;;;;;;;14.15;11.30;;;19.20;99.90;;;;;;5082745;28;20024;-56
2021/07/07 03:48:10;;;;;;;17.23;11.75;;;19.30;99.90;;;;;;5065591;28;20040;-57
2021/07/07 03:50:37;;;;;;;13.30;10.50;;;19.40;99.90;;;;;;5077752;28;20035;-55
2021/07/07 03:53:06;;;;;;;14.35;12.07;;;19.50;99.90;;;;;;5087878;28;20039;-55
2021/07/07 03:55:33;;;;;;;13.38;11.50;;;19.60;99.90;;;;;;5078990;28;20059;-55
2021/07/07 03:57:59;;;;;;;13.90;11.68;;;19.70;99.90;;;;;;5072723;28;20055;-55
2021/07/07 04:00:26;;;;;;;18.85;12.18;;;19.80;99.90;;;;;;5090131;28;20399;-55
2021/07/07 04:02:54;;;;;;;14.35;11.18;;;19.90;99.90;;;;;;5079703;28;20032;-55
2021/07/07 04:05:20;;;;;;;16.00;13.40;;;19.90;99.90;;;;;;5076844;28;20059;-55
2021/07/07 04:07:46;;;;;;;13.57;12.18;;;20.00;99.90;;;;;;5077222;28;20024;-54
2021/07/07 04:10:13;;;;;;;14.98;12.43;;;20.00;99.90;;;;;;5081842;28;20037;-57
2021/07/07 04:12:42;;;;;;;15.15;12.80;;;20.00;99.90;;;;;;5041320;28;20079;-57
2021/07/07 04:15:10;;;;;;;16.02;13.20;;;20.10;99.90;;;;;;5077623;28;20048;-57
2021/07/07 04:17:36;;;;;;;18.83;13.93;;;20.10;99.90;;;;;;5075165;28;20070;-58
2021/07/07 04:20:08;;;;;;;15.93;13.98;;;20.10;99.90;;;;;;5074338;28;20036;-57
2021/07/07 04:22:35;;;;;;;16.70;14.25;;;20.20;99.90;;;;;;4999781;28;20033;-57
2021/07/07 04:25:01;;;;;;;16.65;13.98;;;20.20;99.90;;;;;;5002693;28;20037;-56
2021/07/07 04:27:28;;;;;;;17.60;14.32;;;20.40;99.90;;;;;;5027970;28;20030;-55
2021/07/07 04:29:53;;;;;;;18.00;15.63;;;20.40;99.90;;;;;;5037061;28;20193;-54
2021/07/07 04:32:19;;;;;;;20.25;15.98;;;20.50;99.90;;;;;;4965899;28;20128;-55
2021/07/07 04:34:45;;;;;;;18.88;15.50;;;20.60;99.90;;;;;;5032520;28;20045;-54
2021/07/07 04:37:12;;;;;;;18.63;15.23;;;20.70;99.90;;;;;;5032205;28;20041;-54
2021/07/07 04:39:38;;;;;;;16.48;14.82;;;20.80;99.90;;;;;;5040645;28;20500;-54
2021/07/07 04:42:04;;;;;;;18.80;15.32;;;21.00;99.90;;;;;;5032843;28;20022;-54
2021/07/07 04:44:30;;;;;;;17.00;15.30;;;21.00;99.90;;;;;;5034230;28;20045;-54
2021/07/07 04:46:56;;;;;;;18.27;14.85;;;21.10;99.90;;;;;;5035574;28;20065;-55
2021/07/07 04:49:22;;;;;;;17.23;14.52;;;21.30;99.90;;;;;;5038078;28;20037;-55
2021/07/07 04:51:48;;;;;;;17.83;14.85;;;21.60;99.90;;;;;;5046191;28;20028;-55
2021/07/07 04:54:13;;;;;;;15.82;14.13;;;21.60;99.90;;;;;;5049688;28;20056;-54
2021/07/07 04:56:39;;;;;;;16.60;14.00;;;21.80;99.90;;;;;;5065399;28;20040;-54
2021/07/07 04:59:05;;;;;;;16.45;12.95;;;21.80;99.90;;;;;;5061147;28;20040;-54
2021/07/07 05:01:31;;;;;;;16.50;14.57;;;22.00;99.90;;;;;;5057473;28;20035;-56
2021/07/07 05:03:57;;;;;;;17.85;14.73;;;22.20;99.90;;;;;;5047669;28;20472;-55
2021/07/07 05:06:22;;;;;;;16.67;13.48;;;22.30;99.90;;;;;;5063535;28;20025;-56
2021/07/07 05:08:48;;;;;;;20.23;13.65;;;22.40;99.90;;;;;;5054659;28;20118;-55
2021/07/07 05:11:15;;;;;;;15.43;12.63;;;22.60;99.90;;;;;;5005395;28;20032;-57
2021/07/07 05:13:41;;;;;;;14.63;11.73;;;22.80;99.90;;;;;;5064872;28;20400;-55
2021/07/07 05:16:07;;;;;;;16.80;13.10;;;22.90;99.90;;;;;;5075866;28;20039;-56
2021/07/07 05:18:33;;;;;;;15.90;12.30;;;23.20;99.90;;;;;;5081121;28;20450;-58
2021/07/07 05:20:59;;;;;;;16.67;12.25;;;23.40;99.90;;;;;;5075609;28;20099;-56
2021/07/07 05:23:25;;;;;;;15.30;13.63;;;23.50;99.90;;;;;;5074108;28;20025;-56
2021/07/07 05:25:51;;;;;;;17.60;14.00;;;23.60;99.90;;;;;;5072488;28;20392;-57
2021/07/07 05:28:16;;;;;;;14.50;13.00;;;23.70;99.90;;;;;;5076356;28;20021;-57
2021/07/07 05:30:42;;;;;;;15.48;13.85;;;23.90;99.90;;;;;;5075278;28;20028;-57
2021/07/07 05:33:09;;;;;;;18.65;13.35;;;23.90;99.90;;;;;;5086147;28;20024;-57
2021/07/07 05:35:38;;;;;;;15.70;13.95;;;24.10;99.90;;;;;;5080156;28;20395;-57
2021/07/07 05:38:06;;;;;;;17.08;11.60;;;24.20;99.90;;;;;;5066345;28;20025;-56
2021/07/07 05:40:32;;;;;;;14.10;12.68;;;24.40;99.90;;;;;;5063100;28;20105;-57
2021/07/07 05:42:58;;;;;;;15.50;13.20;;;24.60;99.90;;;;;;5078809;28;20055;-56
2021/07/07 05:45:27;;;;;;;14.20;12.68;;;24.80;99.90;;;;;;5070858;28;20052;-56
2021/07/07 05:47:53;;;;;;;14.52;12.30;;;;;;;;;;5060096;28;20036;-57
2021/07/07 05:50:20;;;;;;;12.32;11.13;;;25.00;99.90;;;;;;5075855;28;20549;-57
2021/07/07 05:52:46;;;;;;;12.52;11.27;;;25.20;99.90;;;;;;5068242;28;20044;-56
2021/07/07 05:55:13;;;;;;;16.50;11.43;;;25.30;99.90;;;;;;5072313;28;20471;-56
2021/07/07 05:57:39;;;;;;;13.82;11.57;;;25.40;99.90;;;;;;5058363;28;20094;-56
2021/07/07 06:00:16;;;;;;;12.68;10.82;;;25.50;99.90;;;;;;5037618;28;20032;-56
2021/07/07 06:02:43;;;;;;;12.02;10.77;;;25.70;99.90;;;;;;5054412;28;20482;-57
2021/07/07 06:05:10;;;;;;;13.93;11.18;;;;;;;;;;5070739;28;20523;-57
2021/07/07 06:07:37;;;;;;;13.18;10.88;;;;;;;;;;5070671;28;20498;-56
2021/07/07 06:10:04;;;;;;;12.00;10.80;;;26.10;99.90;;;;;;5066595;28;20037;-56
2021/07/07 06:12:30;;;;;;;13.77;10.43;;;26.20;99.90;;;;;;5072392;28;20103;-57
2021/07/07 06:14:56;;;;;;;11.55;10.40;;;26.30;99.90;;;;;;5071322;28;20158;-56
2021/07/07 06:17:21;;;;;;;14.82;10.25;;;26.60;99.90;;;;;;5062653;28;20044;-58
2021/07/07 06:19:48;;;;;;;13.18;11.82;;;;;;;;;;5066559;28;20029;-57
2021/07/07 06:22:13;;;;;;;13.93;11.15;;;26.90;99.90;;;;;;5068527;28;20034;-56
2021/07/07 06:24:39;;;;;;;11.48;10.13;;;27.00;99.90;;;;;;5075295;28;20114;-57
2021/07/07 06:27:05;;;;;;;15.30;10.93;;;27.10;99.90;;;;;;5056342;28;20048;-55
2021/07/07 06:29:31;;;;;;;11.55;10.02;;;;;;;;;;5070102;28;20094;-57
2021/07/07 06:31:57;;;;;;;12.55;10.45;;;27.40;99.90;;;;;;5076056;28;20027;-56
2021/07/07 06:34:23;;;;;;;12.32;8.95;;;27.60;99.90;;;;;;5055961;28;20041;-56
2021/07/07 06:36:49;;;;;;;12.90;10.10;;;27.70;99.40;;;;;;5075148;28;20040;-56
2021/07/07 06:39:14;;;;;;;13.18;9.60;;;27.90;98.90;;;;;;5038892;28;20178;-56
2021/07/07 06:41:40;;;;;;;9.90;8.75;;;28.10;98.20;;;;;;5075235;28;20040;-56
2021/07/07 06:44:06;;;;;;;10.57;8.90;;;28.20;95.30;;;;;;5075402;28;20032;-56
2021/07/07 06:46:32;;;;;;;10.65;9.52;;;28.30;95.50;;;;;;5073864;28;20459;-55
2021/07/07 06:48:57;;;;;;;13.57;9.55;;;28.40;96.30;;;;;;5076082;28;20020;-56
2021/07/07 06:51:23;;;;;;;11.18;9.20;;;28.50;95.10;;;;;;5066319;28;20115;-57
2021/07/07 07:06:35;;;;;;;9.90;8.95;;;29.60;93.60;;;;;;5048799;28;20864;-59
2021/07/07 07:09:03;;;;;;;9.57;8.40;;;29.90;93.20;;;;;;5028693;28;20041;-58
2021/07/07 07:11:29;;;;;;;10.30;8.75;;;30.00;92.60;;;;;;5027995;28;20026;-59
2021/07/07 07:13:54;;;;;;;10.27;8.75;;;30.10;92.70;;;;;;5030602;28;20113;-59
2021/07/07 07:16:21;;;;;;;12.43;8.88;;;30.20;93.40;;;;;;5029899;28;20112;-59
2021/07/07 07:18:47;;;;;;;10.75;8.73;;;30.40;93.20;;;;;;5031822;28;20037;-59
2021/07/07 07:21:13;;;;;;;11.93;8.95;;;30.60;91.80;;;;;;5025072;28;20029;-58
2021/07/07 07:23:39;;;;;;;10.20;8.25;;;30.70;93.20;;;;;;5027301;28;20472;-59
2021/07/07 07:26:05;;;;;;;16.75;10.05;;;30.80;91.20;;;;;;5024266;28;20427;-59
2021/07/07 07:28:31;;;;;;;8.25;7.45;;;30.80;90.60;;;;;;5010470;28;20037;-59
2021/07/07 07:30:58;;;;;;;9.73;8.48;;;30.90;90.10;;;;;;5027948;28;20410;-58
2021/07/07 07:33:25;;;;;;;8.95;8.07;;;30.90;88.50;;;;;;5029327;28;20029;-57
2021/07/07 07:35:51;;;;;;;8.38;7.47;;;31.10;89.50;;;;;;5027560;28;20064;-59
2021/07/07 07:38:26;;;;;;;8.48;7.40;;;31.20;85.30;;;;;;4988774;28;20042;-57
2021/07/07 07:40:52;;;;;;;10.20;7.15;;;31.30;87.50;;;;;;5031417;28;20034;-59
2021/07/07 07:43:21;;;;;;;8.27;6.45;;;31.50;96.70;;;;;;5034837;28;20040;-58
2021/07/07 07:45:49;;;;;;;13.43;7.32;;;;;;;;;;5031589;28;20439;-58
2021/07/07 07:48:15;;;;;;;8.07;7.05;;;31.50;80.60;;;;;;5023186;28;20396;-59
2021/07/07 07:50:41;;;;;;;11.60;7.35;;;31.50;80.90;;;;;;5033002;28;20030;-61
2021/07/07 07:53:07;;;;;;;8.20;7.05;;;31.70;81.40;;;;;;4931517;28;20041;-58
2021/07/07 07:55:33;;;;;;;8.82;6.32;;;31.90;80.40;;;;;;5032049;28;20084;-59
2021/07/07 07:57:59;;;;;;;8.73;7.82;;;;;;;;;;4993893;28;20042;-58
2021/07/07 08:00:26;;;;;;;9.32;6.70;;;32.10;95.70;;;;;;5032199;28;20040;-59
2021/07/07 08:02:52;;;;;;;10.30;7.20;;;32.30;88.20;;;;;;5025352;28;20040;-59
2021/07/07 08:05:19;;;;;;;7.85;6.70;;;32.20;77.30;;;;;;5024710;28;20053;-59
2021/07/07 08:07:45;;;;;;;8.85;6.88;;;32.30;77.00;;;;;;5000120;28;20065;-59
2021/07/07 08:10:14;;;;;;;8.45;7.35;;;32.10;75.20;;;;;;5000596;28;20473;-59
2021/07/07 08:12:40;;;;;;;7.38;6.68;;;32.10;73.90;;;;;;4982409;28;20026;-58
2021/07/07 08:15:07;;;;;;;7.80;6.50;;;32.10;74.00;;;;;;4991716;28;20515;-60
2021/07/07 08:17:33;;;;;;;8.75;7.78;;;32.40;75.00;;;;;;4961512;28;20042;-59
2021/07/07 08:19:59;;;;;;;7.20;6.50;;;32.50;77.70;;;;;;4994240;28;20026;-58
2021/07/07 08:22:25;;;;;;;7.60;6.90;;;32.70;75.70;;;;;;4993928;28;20417;-59
2021/07/07 08:24:52;;;;;;;8.38;6.85;;;32.70;73.30;;;;;;4997400;28;20113;-62
2021/07/07 08:27:18;;;;;;;7.25;6.55;;;32.90;80.00;;;;;;4972148;28;20440;-59
2021/07/07 08:29:44;;;;;;;8.73;7.10;;;33.20;81.50;;;;;;5002800;28;20029;-56
2021/07/07 08:32:10;;;;;;;9.05;7.22;;;33.00;72.90;;;;;;4994542;28;20489;-56
2021/07/07 08:34:36;;;;;;;10.40;7.28;;;33.20;72.80;;;;;;4950093;28;20093;-58
2021/07/07 08:37:03;;;;;;;7.75;7.05;;;33.10;72.90;;;;;;4999223;28;20183;-59
2021/07/07 08:39:29;;;;;;;9.55;7.63;;;33.30;73.40;;;;;;5000129;28;20388;-57
2021/07/07 08:41:56;;;;;;;9.38;7.82;;;33.40;70.90;;;;;;4997685;28;20053;-57
2021/07/07 08:44:22;;;;;;;7.45;6.72;;;;;;;;;;4993722;28;20386;-59
2021/07/07 08:46:49;;;;;;;7.82;6.97;;;35.00;77.70;;;;;;5002294;28;20022;-57
2021/07/07 08:49:14;;;;;;;13.18;7.57;;;34.90;65.90;;;;;;4992531;28;20058;-58
2021/07/07 08:51:41;;;;;;;14.00;8.00;;;36.20;66.00;;;;;;4963097;28;20038;-57
2021/07/07 08:54:08;;;;;;;9.15;7.43;;;37.10;63.20;;;;;;4998329;28;20045;-57
2021/07/07 08:56:39;;;;;;;9.65;6.93;;;37.40;61.10;;;;;;4993039;28;20022;-58
2021/07/07 08:59:05;;;;;;;8.73;7.63;;;37.30;61.20;;;;;;4966486;28;20056;-56
2021/07/07 09:01:31;;;;;;;8.48;7.60;;;39.00;60.70;;;;;;4992791;28;20101;-58
2021/07/07 09:03:56;;;;;;;8.50;7.60;;;39.50;59.30;;;;;;5002903;28;20026;-58
2021/07/07 09:06:22;;;;;;;7.07;6.38;;;41.20;58.30;;;;;;4998190;28;20406;-56
2021/07/07 09:08:49;;;;;;;7.20;6.53;;;42.20;55.50;;;;;;4985037;28;20141;-57
2021/07/07 09:11:19;;;;;;;9.43;7.18;;;40.70;55.50;;;;;;4992401;28;20559;-57
2021/07/07 09:14:06;;;;;;;8.95;7.25;;;41.90;54.80;;;;;;5004601;28;20132;-57
2021/07/07 09:16:47;;;;;;;8.77;7.28;;;40.60;54.50;;;;;;4994779;28;20101;-59
2021/07/07 09:19:16;;;;;;;;;;;41.30;54.00;;;;;;4966028;28;20067;-55
2021/07/07 09:21:50;;;;;;;7.85;7.05;;;42.40;52.50;;;;;;4980940;28;19910;-59
2021/07/07 09:24:21;;;;;;;7.43;6.53;;;42.60;52.40;;;;;;4975846;28;20051;-59
2021/07/07 09:26:56;;;;;;;;;;;43.40;52.60;;;;;;4981037;28;20058;-57
2021/07/07 09:29:40;;;;;;;7.55;6.80;;;42.30;51.30;;;;;;4979690;28;20288;-56
2021/07/07 09:32:28;;;;;;;8.45;7.50;;;43.70;50.80;;;;;;4969972;28;20038;-59
2021/07/07 09:35:04;;;;;;;9.13;7.93;;;44.30;49.20;;;;;;4965268;28;20470;-57
2021/07/07 09:37:45;;;;;;;8.43;7.63;;;45.90;48.90;;;;;;4940808;28;20075;-58
2021/07/07 09:40:12;;;;;;;8.52;6.72;;;46.90;48.10;;;;;;4965716;28;20053;-58
2021/07/07 09:42:41;;;;;;;8.25;7.45;;;47.30;47.00;;;;;;4955059;28;20070;-59
2021/07/07 09:45:09;;;;;;;9.38;8.43;;;48.20;47.00;;;;;;4942757;28;20068;-56
2021/07/07 09:47:35;;;;;;;10.82;7.45;;;49.20;45.90;;;;;;4954110;28;20493;-56
2021/07/07 09:50:03;;;;;;;11.85;7.03;;;48.70;45.00;;;;;;4973537;28;20042;-57
2021/07/07 09:52:30;;;;;;;9.13;6.70;;;46.50;44.40;;;;;;4978078;28;20792;-58
2021/07/07 09:54:57;;;;;;;8.85;8.05;;;47.70;45.60;;;;;;4986842;28;20416;-58
2021/07/07 09:57:23;;;;;;;7.50;6.70;;;;;;;;;;4991809;28;20035;-56
2021/07/07 09:59:49;;;;;;;7.75;7.07;;;49.30;68.10;;;;;;4992734;28;20026;-58
2021/07/07 10:02:16;;;;;;;8.20;7.15;;;49.00;43.60;;;;;;4992705;28;20085;-58
2021/07/07 10:04:43;;;;;;;8.02;7.25;;;48.70;43.70;;;;;;4997454;28;20412;-58
2021/07/07 10:07:11;;;;;;;7.28;6.50;;;47.00;44.00;;;;;;5012965;28;20072;-58
2021/07/07 10:09:45;;;;;;;8.18;7.35;;;45.10;44.10;;;;;;5007391;28;20041;-57
2021/07/07 10:12:12;;;;;;;7.45;6.75;;;43.20;47.60;;;;;;4995259;28;20378;-58
2021/07/07 10:14:38;;;;;;;11.13;7.15;;;43.70;46.00;;;;;;5012776;28;20088;-57
2021/07/07 10:17:04;;;;;;;9.98;9.07;;;43.20;46.40;;;;;;5012874;28;20384;-58
2021/07/07 10:19:31;;;;;;;8.50;7.72;;;;;;;;;;4978439;28;20058;-57
2021/07/07 10:21:58;;;;;;;7.40;6.70;;;49.50;43.70;;;;;;5013059;28;20453;-57
2021/07/07 10:24:28;;;;;;;8.75;7.00;;;;;;;;;;5012746;28;20029;-57
2021/07/07 10:26:58;;;;;;;8.70;7.78;;;47.90;42.40;;;;;;5012947;28;20034;-57
2021/07/07 10:29:26;;;;;;;12.45;9.70;;;47.30;44.80;;;;;;5012442;28;20018;-57
2021/07/07 10:31:54;;;;;;;11.45;10.25;;;50.90;43.40;;;;;;5012674;28;20018;-58
2021/07/07 10:34:23;;;;;;;8.35;7.55;;;51.30;42.40;;;;;;5012059;28;20049;-58
2021/07/07 10:36:49;;;;;;;8.20;7.50;;;;;;;;;;5012323;28;20083;-58
2021/07/07 10:39:16;;;;;;;7.85;6.75;;;53.00;40.80;;;;;;5005761;28;20488;-60
2021/07/07 10:41:46;;;;;;;11.27;7.63;;;53.40;40.50;;;;;;4975797;28;20038;-58
2021/07/07 10:44:34;;;;;;;8.80;7.47;;;54.30;40.70;;;;;;5012349;28;20056;-58
2021/07/07 10:47:12;;;;;;;8.93;7.05;;;54.50;39.70;;;;;;4968221;28;20042;-59
2021/07/07 10:49:51;;;;;;;7.57;6.53;;;54.30;40.10;;;;;;5012594;28;20030;-59
2021/07/07 10:52:31;;;;;;;8.02;6.35;;;54.00;39.90;;;;;;5012551;28;20504;-59
2021/07/07 10:54:59;;;;;;;7.43;6.45;;;53.20;40.20;;;;;;5012203;28;20103;-58
2021/07/07 10:57:35;;;;;;;8.07;6.20;;;47.80;40.10;;;;;;5012390;28;20026;-59
2021/07/07 11:00:01;;;;;;;9.18;6.47;;;45.50;42.40;;;;;;5012566;28;20392;-58
2021/07/07 11:02:27;;;;;;;9.25;7.85;;;43.90;43.30;;;;;;5012523;28;20112;-58
2021/07/07 11:05:01;;;;;;;7.10;6.40;;;48.90;42.50;;;;;;5012213;28;20059;-57
2021/07/07 11:07:33;;;;;;;7.10;6.40;;;49.30;42.00;;;;;;5012299;28;20132;-58
2021/07/07 11:09:59;;;;;;;7.03;6.43;;;;;;;;;;5012419;28;20061;-58
2021/07/07 11:12:40;;;;;;;6.80;5.68;;;49.60;39.70;;;;;;5012301;28;20038;-59
2021/07/07 11:15:16;;;;;;;6.18;5.68;;;50.70;39.50;;;;;;5012961;28;20461;-58
2021/07/07 11:17:47;;;;;;;7.07;6.13;;;47.80;39.90;;;;;;5013406;28;20049;-58
2021/07/07 11:20:15;;;;;;;6.55;5.80;;;51.10;39.60;;;;;;5013330;28;20026;-58
2021/07/07 11:22:46;;;;;;;7.07;5.90;;;51.60;38.30;;;;;;4972323;28;20247;-59
2021/07/07 11:25:14;;;;;;;7.18;6.30;;;53.60;38.70;;;;;;4972083;28;20039;-59
2021/07/07 11:27:41;;;;;;;7.00;6.30;;;53.90;37.90;;;;;;4972186;28;20504;-59
2021/07/07 11:30:10;;;;;;;8.32;6.53;;;54.20;37.80;;;;;;4972209;28;20054;-59
2021/07/07 11:32:43;;;;;;;5.93;5.43;;;55.80;38.10;;;;;;4953001;29;20039;-58
2021/07/07 11:35:11;;;;;;;6.63;5.85;;;52.90;36.60;;;;;;4936595;29;20051;-59
2021/07/07 11:37:37;;;;;;;9.80;7.95;;;;;;;;;;4946879;29;20411;-58
2021/07/07 11:40:17;;;;;;;8.38;7.13;;;55.20;37.10;;;;;;4952613;28;20113;-58
2021/07/07 11:43:03;;;;;;;9.52;7.18;;;54.60;37.10;;;;;;4923550;29;20031;-56
2021/07/07 11:45:29;;;;;;;8.60;7.72;;;55.20;37.00;;;;;;4937828;29;20478;-60
2021/07/07 11:48:07;;;;;;;7.72;6.22;;;;;;;;;;4921362;29;20233;-58
2021/07/07 11:50:33;;;;;;;7.18;6.25;;;55.50;36.30;;;;;;4936811;29;20036;-58
2021/07/07 11:53:05;;;;;;;7.70;6.90;;;53.00;36.70;;;;;;4941530;29;20047;-61
2021/07/07 11:55:57;;;;;;;6.75;5.70;;;53.00;38.40;;;;;;4956051;29;20039;-57
2021/07/07 11:58:27;;;;;;;10.50;6.75;;;52.00;37.00;;;;;;4955946;29;20458;-60
2021/07/07 12:00:55;;;;;;;7.10;6.40;;;49.70;38.30;;;;;;4939399;29;20388;-63
2021/07/07 12:03:22;;;;;;;8.55;5.80;;;47.30;39.10;;;;;;4956264;29;20043;-55
2021/07/07 12:05:53;;;;;;;7.13;6.40;;;49.60;39.50;;;;;;4939924;29;20085;-59
2021/07/07 12:08:21;;;;;;;7.05;6.05;;;49.80;38.80;;;;;;4923522;29;20070;-57
2021/07/07 12:10:49;;;;;;;8.93;6.47;;;49.80;38.30;;;;;;4955510;28;20393;-57
2021/07/07 12:13:23;;;;;;;7.70;6.22;;;48.10;39.00;;;;;;4996347;28;20030;-56
2021/07/07 12:15:49;;;;;;;10.07;7.28;;;49.80;39.10;;;;;;4996515;28;20074;-58
2021/07/07 12:18:28;;;;;;;6.97;6.15;;;49.70;38.00;;;;;;4978868;28;20038;-61
2021/07/07 12:20:55;;;;;;;7.68;6.93;;;50.10;38.80;;;;;;4996657;28;20041;-58
2021/07/07 12:23:23;;;;;;;9.43;6.97;;;53.80;38.30;;;;;;4996427;28;20049;-58
2021/07/07 12:25:59;;;;;;;7.43;6.70;;;;;;;;;;4996456;28;20030;-60
2021/07/07 12:28:25;;;;;;;7.43;6.70;;;57.40;36.10;;;;;;4955769;29;20042;-57
2021/07/07 12:30:51;;;;;;;7.72;6.82;;;56.30;36.00;;;;;;4955686;29;20039;-60
2021/07/07 12:33:17;;;;;;;7.43;6.72;;;58.60;36.70;;;;;;4955932;29;20043;-56
2021/07/07 12:35:49;;;;;;;7.72;7.13;;;;;;;;;;4955713;29;20117;-58
2021/07/07 12:38:15;;;;;;;9.07;6.55;;;58.30;36.30;;;;;;4955652;29;20130;-60
2021/07/07 12:40:41;;;;;;;9.40;7.03;;;;;;;;;;4955012;29;20149;-61
2021/07/07 12:43:16;;;;;;;9.65;7.10;;;55.40;35.10;;;;;;4955452;29;20035;-57
2021/07/07 12:45:42;;;;;;;8.00;6.45;;;52.80;36.70;;;;;;4955706;29;20086;-57
2021/07/07 12:48:08;;;;;;;11.48;7.65;;;54.90;37.10;;;;;;4955419;29;20039;-59
2021/07/07 12:50:38;;;;;;;9.00;8.20;;;57.20;36.80;;;;;;4955143;29;20028;-57
2021/07/07 12:53:04;;;;;;;13.35;11.05;;;58.40;37.00;;;;;;4955367;28;20131;-60
2021/07/07 12:55:31;;;;;;;12.55;9.90;;;59.60;36.10;;;;;;4954852;29;20454;-59
2021/07/07 12:58:03;;;;;;;7.80;7.07;;;59.80;35.60;;;;;;4955260;29;20114;-59